createdAt,value
2023-09-09T00:00:52.339Z,100534.28
2023-09-09T00:03:21.121Z,100530.94
2023-09-09T00:05:49.745Z,100538.78
2023-09-09T00:08:18.053Z,100530.94
2023-09-09T00:10:46.641Z,100536.09
2023-09-09T00:13:15.769Z,100536.59
2023-09-09T00:15:43.588Z,100534.94
2023-09-09T00:18:11.582Z,100528.75
2023-09-09T00:20:42.162Z,100532.78
2023-09-09T00:23:10.759Z,100528.41
2023-09-09T00:25:40.376Z,100530.94
2023-09-09T00:28:09.279Z,100534.44
2023-09-09T00:30:37.106Z,100536.28
2023-09-09T00:33:05.558Z,100527.94
2023-09-09T00:35:34.172Z,100539.31
2023-09-09T00:38:02.265Z,100523.47
2023-09-09T00:40:30.293Z,100529.66
2023-09-09T00:42:58.728Z,100529.28
2023-09-09T00:45:27.733Z,100528.16
2023-09-09T00:47:57.204Z,100522.63
2023-09-09T00:50:26.331Z,100528.97
2023-09-09T00:52:53.988Z,100525.28
2023-09-09T00:55:25.194Z,100528.47
2023-09-09T00:57:52.836Z,100530.97
2023-09-09T01:00:20.582Z,100534.63
2023-09-09T01:02:48.570Z,100530.66
2023-09-09T01:05:16.430Z,100537.31
2023-09-09T01:07:47.349Z,100529.94
2023-09-09T01:10:17.512Z,100536.13
2023-09-09T01:12:45.429Z,100529.66
2023-09-09T01:15:14.280Z,100529.97
2023-09-09T01:17:42.932Z,100522.13
2023-09-09T01:20:20.694Z,100519.94
2023-09-09T01:22:50.069Z,100530.31
2023-09-09T01:25:17.944Z,100522.41
2023-09-09T01:27:46.582Z,100529.91
2023-09-09T01:30:17.114Z,100528.25
2023-09-09T01:32:44.781Z,100522.06
2023-09-09T01:35:21.523Z,100528.25
2023-09-09T01:37:51.343Z,100521.22
2023-09-09T01:40:19.111Z,100515.53
2023-09-09T01:42:48.861Z,100517.81
2023-09-09T01:45:18.018Z,100517.12
2023-09-09T01:47:46.390Z,100512.94
2023-09-09T01:50:14.426Z,100510.44
2023-09-09T01:52:42.491Z,100521.75
2023-09-09T01:55:11.138Z,100519.56
2023-09-09T01:57:40.897Z,100516.25
2023-09-09T02:00:10.703Z,100512.38
2023-09-09T02:02:40.579Z,100509.53
2023-09-09T02:05:10.688Z,100514.69
2023-09-09T02:07:38.477Z,100516.53
2023-09-09T02:10:06.436Z,100514.03
2023-09-09T02:12:35.344Z,100518.06
2023-09-09T02:15:03.236Z,100515.34
2023-09-09T02:17:33.287Z,100510.28
2023-09-09T02:20:00.949Z,100507.31
2023-09-09T02:22:30.380Z,100504.03
2023-09-09T02:24:58.319Z,100513.88
2023-09-09T02:27:26.467Z,100507.25
2023-09-09T02:29:54.592Z,100510.22
2023-09-09T02:32:22.890Z,100505.22
2023-09-09T02:34:51.951Z,100510.84
2023-09-09T02:37:22.371Z,100501.66
2023-09-09T02:39:52.161Z,100510.47
2023-09-09T02:42:21.653Z,100505.50
2023-09-09T02:44:53.285Z,100506.88
2023-09-09T02:47:21.715Z,100518.37
2023-09-09T02:49:51.686Z,100501.53
2023-09-09T02:52:22.123Z,100504.84
2023-09-09T02:54:50.061Z,100507.53
2023-09-09T02:57:19.141Z,100501.56
2023-09-09T02:59:47.299Z,100507.41
2023-09-09T03:02:15.606Z,100501.78
2023-09-09T03:04:43.712Z,100503.28
2023-09-09T03:07:12.141Z,100498.94
2023-09-09T03:09:42.524Z,100492.78
2023-09-09T03:12:10.446Z,100499.25
2023-09-09T03:14:38.514Z,100497.06
2023-09-09T03:17:06.585Z,100495.41
2023-09-09T03:19:35.559Z,100493.88
2023-09-09T03:22:03.556Z,100489.06
2023-09-09T03:24:31.499Z,100482.94
2023-09-09T03:26:59.321Z,100492.25
2023-09-09T03:29:27.953Z,100490.56
2023-09-09T03:31:56.078Z,100489.91
2023-09-09T03:34:23.737Z,100490.06
2023-09-09T03:36:51.684Z,100489.75
2023-09-09T03:39:19.353Z,100487.41
2023-09-09T03:41:49.540Z,100491.53
2023-09-09T03:44:17.673Z,100487.66
2023-09-09T03:46:45.584Z,100481.50
2023-09-09T03:49:17.080Z,100490.78
2023-09-09T03:51:45.936Z,100490.25
2023-09-09T03:54:13.641Z,100491.22
2023-09-09T03:56:41.323Z,100496.03
2023-09-09T03:59:09.333Z,100492.53
2023-09-09T04:01:37.918Z,100488.44
2023-09-09T04:04:08.686Z,100487.59
2023-09-09T04:06:36.783Z,100496.59
2023-09-09T04:09:04.776Z,100500.63
2023-09-09T04:11:33.319Z,100502.22
2023-09-09T04:14:01.137Z,100507.84
2023-09-09T04:16:29.421Z,100505.31
2023-09-09T04:18:57.594Z,100503.03
2023-09-09T04:21:25.430Z,100504.63
2023-09-09T04:23:53.117Z,100499.91
2023-09-09T04:26:21.083Z,100506.31
2023-09-09T04:28:49.168Z,100500.44
2023-09-09T04:31:17.308Z,100499.16
2023-09-09T04:33:45.784Z,100503.09
2023-09-09T04:36:14.270Z,100498.56
2023-09-09T04:38:42.947Z,100505.84
2023-09-09T04:41:11.303Z,100500.41
2023-09-09T04:43:39.775Z,100507.63
2023-09-09T04:46:08.046Z,100520.69
2023-09-09T04:48:36.734Z,100516.09
2023-09-09T04:51:04.584Z,100514.31
2023-09-09T04:53:32.374Z,100515.03
2023-09-09T04:56:01.898Z,100521.31
2023-09-09T04:58:31.644Z,100524.06
2023-09-09T05:01:01.653Z,100521.75
2023-09-09T05:03:30.587Z,100523.81
2023-09-09T05:05:59.393Z,100524.19
2023-09-09T05:08:27.414Z,100527.06
2023-09-09T05:10:57.618Z,100536.25
2023-09-09T05:13:27.128Z,100533.62
2023-09-09T05:15:55.665Z,100530.16
2023-09-09T05:18:23.482Z,100530.62
2023-09-09T05:20:51.507Z,100537.81
2023-09-09T05:23:20.147Z,100542.97
2023-09-09T05:25:48.747Z,100538.47
2023-09-09T05:28:16.422Z,100541.97
2023-09-09T05:30:44.568Z,100538.28
2023-09-09T05:33:12.639Z,100544.25
2023-09-09T05:35:40.329Z,100546.94
2023-09-09T05:38:08.323Z,100550.62
2023-09-09T05:40:36.122Z,100545.87
2023-09-09T05:43:03.994Z,100545.66
2023-09-09T05:45:31.949Z,100552.59
2023-09-09T05:48:00.785Z,100551.84
2023-09-09T05:50:30.830Z,100551.94
2023-09-09T05:53:01.836Z,100538.87
2023-09-09T05:55:31.278Z,100537.47
2023-09-09T05:57:59.504Z,100544.09
2023-09-09T06:00:27.165Z,100551.63
2023-09-09T06:02:55.173Z,100554.53
2023-09-09T06:05:22.873Z,100555.63
2023-09-09T06:07:52.912Z,100556.97
2023-09-09T06:10:21.720Z,100569.63
2023-09-09T06:12:49.991Z,100586.53
2023-09-09T06:15:18.057Z,100590.81
2023-09-09T06:17:46.502Z,100599.59
2023-09-09T06:20:15.366Z,100602.78
2023-09-09T06:22:43.373Z,100603.44
2023-09-09T06:25:11.774Z,100612.47
2023-09-09T06:27:39.447Z,100616.97
2023-09-09T06:30:07.776Z,100618.69
2023-09-09T06:32:36.332Z,100621.72
2023-09-09T06:35:06.651Z,100622.53
2023-09-09T06:37:34.532Z,100627.84
2023-09-09T06:40:02.575Z,100627.59
2023-09-09T06:42:33.178Z,100624.66
2023-09-09T06:45:05.375Z,100632.53
2023-09-09T06:47:34.033Z,100632.22
2023-09-09T06:50:04.273Z,100635.16
2023-09-09T06:52:32.607Z,100625.91
2023-09-09T06:55:00.560Z,100630.72
2023-09-09T06:57:28.238Z,100625.25
2023-09-09T06:59:55.984Z,100625.84
2023-09-09T07:02:25.775Z,100624.44
2023-09-09T07:04:54.776Z,100618.12
2023-09-09T07:07:23.299Z,100622.50
2023-09-09T07:09:53.427Z,100628.22
2023-09-09T07:12:21.183Z,100632.31
2023-09-09T07:14:48.952Z,100627.75
2023-09-09T07:17:16.881Z,100637.66
2023-09-09T07:19:44.527Z,100640.66
2023-09-09T07:22:12.173Z,100628.84
2023-09-09T07:24:40.165Z,100625.69
2023-09-09T07:27:07.906Z,100633.63
2023-09-09T07:29:35.575Z,100631.94
2023-09-09T07:32:04.204Z,100639.00
2023-09-09T07:34:31.905Z,100633.87
2023-09-09T07:37:03.585Z,100634.97
2023-09-09T07:39:45.880Z,100640.59
2023-09-09T07:42:16.960Z,100627.97
2023-09-09T07:44:45.549Z,100624.50
2023-09-09T07:47:13.091Z,100633.75
2023-09-09T07:49:40.950Z,100627.19
2023-09-09T07:52:10.033Z,100637.69
2023-09-09T07:54:37.772Z,100631.41
2023-09-09T07:57:07.222Z,100640.00
2023-09-09T07:59:34.600Z,100636.25
2023-09-09T08:02:04.046Z,100636.13
2023-09-09T08:04:33.079Z,100637.75
2023-09-09T08:07:03.193Z,100634.63
2023-09-09T08:09:38.087Z,100621.44
2023-09-09T08:12:08.167Z,100629.09
2023-09-09T08:14:35.415Z,100630.75
2023-09-09T08:17:05.588Z,100638.34
2023-09-09T08:19:33.464Z,100648.03
2023-09-09T08:22:02.722Z,100641.28
2023-09-09T08:24:29.893Z,100638.06
2023-09-09T08:26:58.136Z,100642.59
2023-09-09T08:29:28.329Z,100637.25
2023-09-09T08:31:55.606Z,100633.47
2023-09-09T08:34:23.180Z,100631.25
2023-09-09T08:36:50.430Z,100629.63
2023-09-09T08:39:20.625Z,100633.31
2023-09-09T08:42:37.088Z,100626.75
2023-09-09T08:45:31.852Z,100632.97
2023-09-09T08:48:00.550Z,100622.53
2023-09-09T08:50:31.053Z,100627.69
2023-09-09T08:53:03.787Z,100636.03
2023-09-09T08:55:33.169Z,100623.37
2023-09-09T08:58:00.584Z,100632.03
2023-09-09T09:00:34.689Z,100628.25
2023-09-09T09:03:03.365Z,100618.16
2023-09-09T09:05:33.637Z,100616.72
2023-09-09T09:08:02.108Z,100622.81
2023-09-09T09:10:29.704Z,100629.47
2023-09-09T09:12:57.863Z,100621.31
2023-09-09T09:15:26.026Z,100621.59
2023-09-09T09:17:55.818Z,100626.97
2023-09-09T09:20:29.709Z,100622.47
2023-09-09T09:23:00.210Z,100620.28
2023-09-09T09:25:30.794Z,100624.56
2023-09-09T09:27:59.072Z,100614.53
2023-09-09T09:30:30.423Z,100623.72
2023-09-09T09:32:58.521Z,100612.81
2023-09-09T09:35:30.817Z,100618.06
2023-09-09T09:41:28.301Z,100611.41
2023-09-09T09:43:56.298Z,100612.97
2023-09-09T09:46:24.157Z,100610.72
2023-09-09T09:48:52.158Z,100609.59
2023-09-09T09:51:20.243Z,100602.38
2023-09-09T09:53:50.396Z,100611.97
2023-09-09T09:56:21.198Z,100607.13
2023-09-09T09:58:51.452Z,100600.06
2023-09-09T10:01:19.438Z,100605.16
2023-09-09T10:03:50.200Z,100601.91
2023-09-09T10:06:22.273Z,100598.44
2023-09-09T10:08:58.391Z,100596.25
2023-09-09T10:11:30.297Z,100598.66
2023-09-09T10:14:07.980Z,100598.69
2023-09-09T10:16:36.919Z,100604.47
2023-09-09T10:19:05.226Z,100598.69
2023-09-09T10:21:41.913Z,100603.63
2023-09-09T10:24:13.407Z,100595.44
2023-09-09T10:26:41.317Z,100606.00
2023-09-09T10:29:11.662Z,100598.16
2023-09-09T10:31:44.863Z,100597.09
2023-09-09T10:34:17.866Z,100590.50
2023-09-09T10:36:59.504Z,100589.53
2023-09-09T10:39:29.514Z,100586.88
2023-09-09T10:41:59.098Z,100588.59
2023-09-09T10:44:39.526Z,100584.56
2023-09-09T10:47:09.998Z,100591.41
2023-09-09T10:49:41.237Z,100592.56
2023-09-09T10:52:39.586Z,100584.09
2023-09-09T10:58:35.000Z,100576.28
2023-09-09T11:01:31.925Z,100573.34
2023-09-09T11:04:23.450Z,100573.75
2023-09-09T11:07:10.424Z,100577.84
2023-09-09T11:09:38.822Z,100573.94
2023-09-09T11:12:16.580Z,100570.72
2023-09-09T11:14:49.489Z,100567.16
2023-09-09T11:20:49.508Z,100563.06
2023-09-09T11:26:49.569Z,100548.97
2023-09-09T11:29:30.127Z,100551.81
2023-09-09T11:32:04.469Z,100551.69
2023-09-09T11:34:34.438Z,100551.31
2023-09-09T11:37:03.176Z,100549.91
2023-09-09T11:39:31.630Z,100551.94
2023-09-09T11:42:02.591Z,100542.00
2023-09-09T11:44:37.963Z,100534.47
2023-09-09T11:47:09.134Z,100543.62
2023-09-09T11:49:39.640Z,100542.81
2023-09-09T11:52:07.283Z,100544.09
2023-09-09T11:54:38.383Z,100538.97
2023-09-09T11:57:07.322Z,100545.59
2023-09-09T12:00:08.101Z,100537.69
2023-09-09T12:02:41.132Z,100534.63
2023-09-09T12:05:10.434Z,100541.63
2023-09-09T12:07:38.266Z,100534.28
2023-09-09T12:10:10.161Z,100528.84
2023-09-09T12:12:39.462Z,100523.31
2023-09-09T12:15:07.271Z,100522.97
2023-09-09T12:17:38.192Z,100518.94
2023-09-09T12:20:11.909Z,100517.84
2023-09-09T12:22:51.346Z,100519.69
2023-09-09T12:25:34.013Z,100517.44
2023-09-09T12:28:01.881Z,100517.94
2023-09-09T12:30:40.609Z,100512.09
2023-09-09T12:33:08.905Z,100508.94
2023-09-09T12:35:44.238Z,100505.78
2023-09-09T12:38:12.662Z,100505.13
2023-09-09T12:40:49.382Z,100500.53
2023-09-09T12:43:23.104Z,100501.59
2023-09-09T12:45:53.230Z,100495.13
2023-09-09T12:48:21.798Z,100496.16
2023-09-09T12:50:56.895Z,100500.63
2023-09-09T12:53:32.308Z,100486.25
2023-09-09T12:56:01.847Z,100480.91
2023-09-09T12:58:32.806Z,100484.44
2023-09-09T13:04:29.857Z,100480.13
2023-09-09T13:07:00.945Z,100479.75
2023-09-09T13:09:29.474Z,100478.50
2023-09-09T13:11:57.202Z,100481.56
2023-09-09T13:14:26.945Z,100478.41
2023-09-09T13:16:55.680Z,100477.44
2023-09-09T13:19:26.676Z,100479.53
2023-09-09T13:21:57.070Z,100476.25
2023-09-09T13:24:28.615Z,100470.56
2023-09-09T13:26:56.308Z,100472.22
2023-09-09T13:29:26.018Z,100465.88
2023-09-09T13:31:56.559Z,100476.59
2023-09-09T13:34:32.705Z,100459.25
2023-09-09T13:37:01.176Z,100466.38
2023-09-09T13:39:30.715Z,100465.88
2023-09-09T13:42:00.859Z,100454.72
2023-09-09T13:44:33.015Z,100456.63
2023-09-09T13:47:00.946Z,100458.38
2023-09-09T13:49:28.598Z,100460.25
2023-09-09T13:51:56.640Z,100459.28
2023-09-09T13:54:24.718Z,100465.34
2023-09-09T13:56:55.591Z,100464.53
2023-09-09T13:59:23.286Z,100456.88
2023-09-09T14:01:51.362Z,100456.63
2023-09-09T14:04:19.503Z,100459.66
2023-09-09T14:06:47.323Z,100462.28
2023-09-09T14:09:15.055Z,100463.56
2023-09-09T14:11:42.493Z,100458.13
2023-09-09T14:14:11.341Z,100460.06
2023-09-09T14:16:39.015Z,100461.25
2023-09-09T14:19:08.976Z,100455.62
2023-09-09T14:21:38.865Z,100458.44
2023-09-09T14:24:07.248Z,100445.97
2023-09-09T14:26:35.004Z,100453.53
2023-09-09T14:29:06.307Z,100447.69
2023-09-09T14:31:34.256Z,100447.22
2023-09-09T14:34:02.018Z,100442.25
2023-09-09T14:36:30.823Z,100445.56
2023-09-09T14:39:01.595Z,100439.78
2023-09-09T14:41:31.706Z,100441.19
2023-09-09T14:43:59.750Z,100440.28
2023-09-09T14:46:28.729Z,100432.75
2023-09-09T14:49:03.196Z,100440.94
2023-09-09T14:51:33.862Z,100439.38
2023-09-09T14:54:04.660Z,100441.44
2023-09-09T14:56:33.520Z,100430.37
2023-09-09T14:59:01.612Z,100429.38
2023-09-09T15:01:29.390Z,100431.53
2023-09-09T15:04:00.398Z,100426.66
2023-09-09T15:06:28.064Z,100431.53
2023-09-09T15:08:56.441Z,100433.84
2023-09-09T15:11:25.360Z,100430.03
2023-09-09T15:13:53.393Z,100425.41
2023-09-09T15:16:22.434Z,100422.47
2023-09-09T15:18:50.580Z,100418.84
2023-09-09T15:21:18.325Z,100427.25
2023-09-09T15:23:46.340Z,100431.28
2023-09-09T15:26:14.298Z,100420.09
2023-09-09T15:28:42.154Z,100426.91
2023-09-09T15:31:10.244Z,100421.31
2023-09-09T15:33:38.097Z,100428.56
2023-09-09T15:36:18.963Z,100423.81
2023-09-09T15:38:47.047Z,100416.19
2023-09-09T15:41:14.686Z,100417.28
2023-09-09T15:43:47.458Z,100427.09
2023-09-09T15:46:15.891Z,100417.69
2023-09-09T15:48:43.672Z,100431.72
2023-09-09T15:51:11.506Z,100418.62
2023-09-09T15:53:40.722Z,100414.81
2023-09-09T15:56:12.775Z,100416.25
2023-09-09T15:58:43.138Z,100412.06
2023-09-09T16:04:42.090Z,100411.47
2023-09-09T16:07:10.867Z,100421.28
2023-09-09T16:09:39.509Z,100423.00
2023-09-09T16:12:07.622Z,100412.94
2023-09-09T16:14:35.569Z,100419.81
2023-09-09T16:17:04.562Z,100413.03
2023-09-09T16:19:32.334Z,100412.91
2023-09-09T16:22:00.375Z,100424.81
2023-09-09T16:24:28.020Z,100413.06
2023-09-09T16:26:55.706Z,100413.63
2023-09-09T16:29:23.130Z,100417.75
2023-09-09T16:31:51.484Z,100416.91
2023-09-09T16:34:19.643Z,100423.47
2023-09-09T16:36:48.369Z,100418.72
2023-09-09T16:39:16.103Z,100413.56
2023-09-09T16:41:43.926Z,100411.91
2023-09-09T16:44:12.039Z,100409.31
2023-09-09T16:46:40.411Z,100404.59
2023-09-09T16:49:08.293Z,100408.50
2023-09-09T16:51:36.356Z,100408.66
2023-09-09T16:54:04.164Z,100413.25
2023-09-09T16:56:32.759Z,100408.53
2023-09-09T16:59:01.670Z,100410.59
2023-09-09T17:01:28.879Z,100413.91
2023-09-09T17:03:56.167Z,100413.75
2023-09-09T17:06:24.674Z,100412.12
2023-09-09T17:08:52.079Z,100406.91
2023-09-09T17:11:19.356Z,100414.00
2023-09-09T17:13:46.843Z,100423.56
2023-09-09T17:16:14.036Z,100413.59
2023-09-09T17:18:41.196Z,100417.38
2023-09-09T17:21:11.765Z,100427.78
2023-09-09T17:23:39.282Z,100423.22
2023-09-09T17:26:08.732Z,100429.03
2023-09-09T17:28:36.836Z,100417.97
2023-09-09T17:31:04.693Z,100421.66
2023-09-09T17:33:31.829Z,100422.97
2023-09-09T17:36:00.017Z,100430.81
2023-09-09T17:38:27.264Z,100427.16
2023-09-09T17:40:54.413Z,100429.25
2023-09-09T17:43:22.941Z,100436.38
2023-09-09T17:45:52.916Z,100425.94
2023-09-09T17:48:20.095Z,100441.16
2023-09-09T17:50:47.831Z,100443.56
2023-09-09T17:53:17.655Z,100442.75
2023-09-09T17:55:45.052Z,100438.22
2023-09-09T17:58:14.881Z,100443.63
2023-09-09T18:00:42.826Z,100446.97
2023-09-09T18:03:13.517Z,100449.47
2023-09-09T18:05:40.817Z,100454.69
2023-09-09T18:08:08.799Z,100455.75
2023-09-09T18:10:36.867Z,100453.47
2023-09-09T18:13:04.319Z,100458.06
2023-09-09T18:15:37.152Z,100461.97
2023-09-09T18:18:07.191Z,100455.56
2023-09-09T18:20:36.440Z,100463.00
2023-09-09T18:23:05.105Z,100460.06
2023-09-09T18:25:33.700Z,100460.84
2023-09-09T18:28:03.359Z,100469.09
2023-09-09T18:30:40.209Z,100463.75
2023-09-09T18:33:08.710Z,100462.28
2023-09-09T18:35:36.999Z,100471.53
2023-09-09T18:38:05.498Z,100473.66
2023-09-09T18:40:34.914Z,100473.03
2023-09-09T18:43:03.962Z,100474.47
2023-09-09T18:45:32.069Z,100472.56
2023-09-09T18:48:03.643Z,100479.81
2023-09-09T18:50:31.451Z,100483.78
2023-09-09T18:53:03.221Z,100479.81
2023-09-09T18:55:35.413Z,100469.53
2023-09-09T18:58:04.078Z,100472.78
2023-09-09T19:00:32.640Z,100471.37
2023-09-09T19:03:01.997Z,100465.19
2023-09-09T19:05:33.603Z,100470.75
2023-09-09T19:08:06.787Z,100467.37
2023-09-09T19:10:37.286Z,100463.63
2023-09-09T19:13:07.543Z,100470.59
2023-09-09T19:15:36.415Z,100471.25
2023-09-09T19:18:08.569Z,100477.22
2023-09-09T19:20:40.758Z,100477.53
2023-09-09T19:23:08.927Z,100476.28
2023-09-09T19:25:39.113Z,100480.41
2023-09-09T19:28:12.859Z,100486.94
2023-09-09T19:30:48.729Z,100473.59
2023-09-09T19:33:22.678Z,100482.66
2023-09-09T19:35:52.363Z,100477.28
2023-09-09T19:38:22.585Z,100475.66
2023-09-09T19:40:53.272Z,100480.22
2023-09-09T19:43:24.245Z,100486.44
2023-09-09T19:45:58.044Z,100488.50
2023-09-09T19:48:28.946Z,100477.91
2023-09-09T19:50:58.087Z,100480.06
2023-09-09T19:53:26.295Z,100480.50
2023-09-09T19:55:55.523Z,100485.88
2023-09-09T19:58:26.308Z,100484.53
2023-09-09T20:00:55.148Z,100484.53
2023-09-09T20:03:28.862Z,100489.06
2023-09-09T20:05:58.506Z,100485.81
2023-09-09T20:08:29.265Z,100482.09
2023-09-09T20:10:57.974Z,100477.50
2023-09-09T20:13:26.705Z,100473.97
2023-09-09T20:15:56.906Z,100473.00
2023-09-09T20:18:25.388Z,100471.31
2023-09-09T20:20:54.789Z,100471.37
2023-09-09T20:23:23.795Z,100486.97
2023-09-09T20:25:52.528Z,100480.50
2023-09-09T20:28:21.267Z,100483.75
2023-09-09T20:30:49.734Z,100480.87
2023-09-09T20:33:20.826Z,100484.94
2023-09-09T20:35:51.218Z,100483.69
2023-09-09T20:38:19.900Z,100487.00
2023-09-09T20:40:48.392Z,100489.13
2023-09-09T20:43:17.972Z,100496.81
2023-09-09T20:45:46.832Z,100494.75
2023-09-09T20:48:17.213Z,100507.91
2023-09-09T20:50:45.253Z,100499.09
2023-09-09T20:53:13.026Z,100497.22
2023-09-09T20:55:41.497Z,100500.56
2023-09-09T20:58:09.777Z,100501.75
2023-09-09T21:00:40.371Z,100504.06
2023-09-09T21:03:07.650Z,100497.69
2023-09-09T21:05:34.984Z,100500.16
2023-09-09T21:08:02.553Z,100505.00
2023-09-09T21:10:29.828Z,100505.00
2023-09-09T21:12:59.690Z,100495.44
2023-09-09T21:15:27.081Z,100493.59
2023-09-09T21:17:56.732Z,100492.38
2023-09-09T21:20:23.991Z,100500.25
2023-09-09T21:22:51.510Z,100495.25
2023-09-09T21:25:31.491Z,100494.59
2023-09-09T21:27:59.666Z,100493.81
2023-09-09T21:30:28.325Z,100495.22
2023-09-09T21:32:55.785Z,100493.50
2023-09-09T21:35:23.301Z,100489.56
2023-09-09T21:37:50.660Z,100493.34
2023-09-09T21:43:52.090Z,100490.59
2023-09-09T21:46:20.217Z,100495.13
2023-09-09T21:48:48.777Z,100495.47
2023-09-09T21:51:16.539Z,100488.00
2023-09-09T21:53:44.530Z,100491.50
2023-09-09T21:56:12.152Z,100489.88
2023-09-09T21:58:39.988Z,100492.22
2023-09-09T22:01:12.915Z,100489.28
2023-09-09T22:03:41.195Z,100490.56
2023-09-09T22:06:09.023Z,100502.94
2023-09-09T22:08:36.972Z,100497.63
2023-09-09T22:11:06.998Z,100500.63
2023-09-09T22:13:35.137Z,100491.00
2023-09-09T22:16:08.631Z,100500.03
2023-09-09T22:18:37.627Z,100485.38
2023-09-09T22:21:09.065Z,100495.44
2023-09-09T22:23:37.611Z,100491.25
2023-09-09T22:26:29.962Z,100488.06
2023-09-09T22:28:58.417Z,100492.56
2023-09-09T22:31:26.268Z,100484.37
2023-09-09T22:33:54.312Z,100489.09
2023-09-09T22:36:25.507Z,100479.75
2023-09-09T22:38:58.042Z,100485.44
2023-09-09T22:41:26.062Z,100483.78
2023-09-09T22:43:53.783Z,100478.06
2023-09-09T22:49:53.945Z,100483.41
2023-09-09T22:52:21.616Z,100488.56
2023-09-09T22:54:49.042Z,100488.44
2023-09-09T22:57:16.762Z,100483.25
2023-09-09T22:59:44.499Z,100487.13
2023-09-09T23:02:11.779Z,100485.47
2023-09-09T23:04:39.065Z,100482.09
2023-09-09T23:07:06.586Z,100482.78
2023-09-09T23:09:33.972Z,100487.31
2023-09-09T23:12:01.379Z,100482.47
2023-09-09T23:14:28.792Z,100486.16
2023-09-09T23:16:56.059Z,100489.97
2023-09-09T23:19:23.274Z,100493.34
2023-09-09T23:21:50.679Z,100488.34
2023-09-09T23:24:17.791Z,100487.50
2023-09-09T23:26:44.906Z,100488.50
2023-09-09T23:29:13.345Z,100487.84
2023-09-09T23:31:40.753Z,100480.84
2023-09-09T23:34:07.969Z,100482.19
2023-09-09T23:36:35.393Z,100485.34
2023-09-09T23:39:07.543Z,100480.19
2023-09-09T23:41:34.991Z,100496.06
2023-09-09T23:44:02.769Z,100489.56
2023-09-09T23:46:31.320Z,100482.53
2023-09-09T23:48:59.260Z,100485.72
2023-09-09T23:51:27.482Z,100486.19
2023-09-09T23:53:55.195Z,100488.19
2023-09-09T23:56:22.838Z,100481.66
2023-09-09T23:58:50.336Z,100491.53
